Time;durP1;ratioP1;P1;durP2;ratioP2;P2;SDS_P1;SDS_P2;PMS_P1;PMS_P2;Temp;Humidity;BMP_temperature;BMP_pressure;BME280_temperature;BME280_humidity;BME280_pressure;Samples;Min_cycle;Max_cycle;Signal;HPM_P1;HPM_P2
2023/07/20 00:00:22;;;;;;;1.00;0.90;;;;;;;22.47;52.85;101344.91;5053730;28;20029;-59
2023/07/20 00:02:50;;;;;;;1.08;1.00;;;;;;;22.47;52.53;101347.63;5057517;28;20054;-59
2023/07/20 00:05:18;;;;;;;0.73;0.73;;;;;;;22.47;52.85;101347.63;5052431;28;20036;-59
2023/07/20 00:07:44;;;;;;;0.75;0.75;;;;;;;22.46;52.76;101348.63;5060728;28;20024;-59
2023/07/20 00:10:09;;;;;;;1.42;1.00;;;;;;;22.45;52.65;101346.94;5062071;28;20059;-58
2023/07/20 00:12:35;;;;;;;2.00;1.30;;;;;;;22.45;52.40;101350.47;5060805;28;20033;-59
2023/07/20 00:15:00;;;;;;;1.25;0.93;;;;;;;22.45;52.75;101349.66;5059148;28;20058;-58
2023/07/20 00:17:26;;;;;;;1.67;0.70;;;;;;;22.45;52.75;101353.19;5060549;28;20062;-59
2023/07/20 00:19:51;;;;;;;0.68;0.68;;;;;;;22.45;52.07;101352.34;5060666;28;20425;-58
2023/07/20 00:22:16;;;;;;;0.68;0.68;;;;;;;22.44;52.34;101343.34;5057287;28;20028;-58
2023/07/20 00:24:42;;;;;;;0.95;0.88;;;;;;;22.44;52.84;101353.34;5062766;28;20028;-58
2023/07/20 00:27:07;;;;;;;0.70;0.70;;;;;;;22.45;52.85;101355.06;5057213;28;20069;-59
2023/07/20 00:29:33;;;;;;;1.30;1.00;;;;;;;22.44;52.27;101358.78;5055053;28;20075;-59
2023/07/20 00:31:58;;;;;;;2.00;1.15;;;;;;;22.44;52.58;101353.34;5061087;28;20032;-58
2023/07/20 00:34:24;;;;;;;1.80;0.95;;;;;;;22.43;52.25;101355.22;5058352;28;20106;-59
2023/07/20 00:36:50;;;;;;;1.40;1.02;;;;;;;22.43;52.21;101359.81;5055631;28;20033;-58
2023/07/20 00:39:15;;;;;;;2.13;0.85;;;;;;;22.42;52.29;101356.22;5061353;28;20067;-58
2023/07/20 00:41:40;;;;;;;1.10;1.00;;;;;;;22.42;52.75;101350.81;5040635;28;20476;-59
2023/07/20 00:44:06;;;;;;;1.20;1.10;;;;;;;22.43;52.26;101351.69;5056258;28;20025;-59
2023/07/20 00:46:32;;;;;;;1.10;1.00;;;;;;;22.42;52.28;101356.22;5038054;28;20474;-58
2023/07/20 00:48:58;;;;;;;1.40;1.10;;;;;;;22.42;52.70;101361.66;5060101;28;20021;-59
2023/07/20 00:51:26;;;;;;;1.45;0.98;;;;;;;22.42;52.71;101360.81;5054543;28;20043;-58
2023/07/20 00:53:51;;;;;;;1.58;1.13;;;;;;;22.42;52.04;101360.81;5061263;28;20017;-59
2023/07/20 00:56:17;;;;;;;1.45;1.10;;;;;;;22.41;52.61;101356.41;5059701;28;20041;-59
2023/07/20 00:58:43;;;;;;;1.20;1.10;;;;;;;22.41;52.29;101364.56;5058359;28;20024;-59
2023/07/20 01:01:08;;;;;;;1.85;1.00;;;;;;;22.41;52.20;101364.56;5057100;28;20079;-59
2023/07/20 01:03:34;;;;;;;1.30;1.20;;;;;;;22.40;52.22;101355.53;5057290;28;20025;-59
2023/07/20 01:06:36;;;;;;;1.48;1.00;;;;;;;22.42;52.32;101361.66;5057362;28;20021;-58
2023/07/20 01:09:08;;;;;;;1.20;1.00;;;;;;;22.41;52.12;101367.28;5054771;28;20497;-58
2023/07/20 01:11:58;;;;;;;1.33;1.20;;;;;;;22.40;52.41;101363.69;5059330;28;20021;-59
2023/07/20 01:14:25;;;;;;;1.65;1.10;;;;;;;22.40;52.18;101365.56;5053396;28;20029;-58
2023/07/20 01:16:52;;;;;;;1.77;1.20;;;;;;;22.39;52.43;101371.97;5061726;28;20082;-58
2023/07/20 01:19:18;;;;;;;2.03;1.05;;;;;;;22.38;51.89;101363.00;5058165;28;20499;-58
2023/07/20 01:21:55;;;;;;;1.92;1.27;;;;;;;22.40;52.00;101357.41;5056450;28;20149;-58
2023/07/20 01:25:05;;;;;;;1.20;1.10;;;;;;;22.40;52.48;101368.28;5055419;28;20048;-58
2023/07/20 01:27:49;;;;;;;1.13;1.02;;;;;;;22.39;52.35;101371.97;5058236;28;20036;-58
2023/07/20 01:30:39;;;;;;;1.20;1.10;;;;;;;22.38;52.38;101376.56;5059908;28;20032;-58
2023/07/20 01:33:07;;;;;;;1.95;1.15;;;;;;;22.37;51.96;101371.28;5056119;28;20079;-58
2023/07/20 01:35:33;;;;;;;1.30;1.20;;;;;;;22.37;52.08;101374.00;5058776;28;20041;-59
2023/07/20 01:37:59;;;;;;;1.23;0.95;;;;;;;22.36;52.35;101375.88;5056334;28;20152;-58
2023/07/20 01:40:25;;;;;;;1.90;1.27;;;;;;;22.35;51.94;101371.47;5058202;28;20446;-58
2023/07/20 01:42:51;;;;;;;1.20;1.10;;;;;;;22.36;52.21;101378.59;5054432;28;20041;-59
2023/07/20 01:45:17;;;;;;;1.77;1.23;;;;;;;22.36;51.84;101375.03;5058059;28;20032;-59
2023/07/20 01:47:42;;;;;;;1.20;1.10;;;;;;;22.35;52.34;101376.03;5057863;28;20394;-59
2023/07/20 01:50:08;;;;;;;2.13;1.10;;;;;;;22.35;52.26;101370.59;5054842;28;20036;-58
2023/07/20 01:52:34;;;;;;;1.30;1.02;;;;;;;22.33;51.70;101378.94;5056387;28;20043;-59
2023/07/20 01:54:59;;;;;;;1.48;1.13;;;;;;;22.34;52.24;101377.91;5059533;28;20044;-58
2023/07/20 01:57:24;;;;;;;1.48;1.38;;;;;;;22.35;52.15;101381.47;5057855;28;20040;-58
2023/07/20 01:59:50;;;;;;;1.92;1.40;;;;;;;22.34;52.33;101387.91;5053113;28;20075;-59
2023/07/20 02:02:15;;;;;;;1.65;1.27;;;;;;;22.34;52.16;101387.91;5057849;28;20052;-59
2023/07/20 02:04:41;;;;;;;1.25;1.13;;;;;;;22.34;51.82;101385.22;5057895;28;20032;-59
2023/07/20 02:07:06;;;;;;;1.20;1.10;;;;;;;22.34;51.86;101385.22;5057045;28;20025;-59
2023/07/20 02:09:31;;;;;;;1.35;1.25;;;;;;;22.34;52.03;101385.22;5040191;28;20090;-58
2023/07/20 02:11:57;;;;;;;1.35;1.25;;;;;;;22.32;52.21;101388.06;5058565;28;20086;-59
2023/07/20 02:14:22;;;;;;;1.30;1.20;;;;;;;22.33;52.17;101380.78;5058407;28;20124;-59
2023/07/20 02:16:51;;;;;;;1.40;1.30;;;;;;;22.32;52.09;101387.22;5057782;28;20424;-59
2023/07/20 02:19:17;;;;;;;1.02;1.00;;;;;;;22.32;51.73;101389.94;5057079;28;20044;-59
2023/07/20 02:21:42;;;;;;;1.45;1.17;;;;;;;22.31;52.27;101390.94;5056202;28;20409;-59
2023/07/20 02:24:08;;;;;;;1.42;1.30;;;;;;;22.31;52.08;101390.94;5037520;28;20082;-59
2023/07/20 02:26:33;;;;;;;1.83;1.10;;;;;;;22.31;51.72;101388.22;5061015;28;20060;-58
2023/07/20 02:28:58;;;;;;;1.45;1.23;;;;;;;22.31;51.55;101388.22;5055957;28;20069;-58
2023/07/20 02:31:24;;;;;;;1.35;1.13;;;;;;;22.31;51.81;101394.50;5058403;28;20033;-59
2023/07/20 02:33:49;;;;;;;1.67;1.30;;;;;;;22.31;51.77;101394.50;5058517;28;20033;-58
2023/07/20 02:36:16;;;;;;;1.38;1.27;;;;;;;22.31;51.92;101397.22;5055576;28;20021;-58
2023/07/20 02:38:42;;;;;;;2.63;1.25;;;;;;;22.30;51.61;101400.94;5054039;28;20029;-59
2023/07/20 02:41:07;;;;;;;1.60;1.20;;;;;;;22.30;51.92;101403.66;5058144;28;20490;-58
2023/07/20 02:43:32;;;;;;;1.35;1.25;;;;;;;22.30;51.54;101402.81;5057306;28;20418;-58
2023/07/20 02:45:58;;;;;;;1.65;1.30;;;;;;;22.30;51.75;101414.53;5058024;28;20083;-58
2023/07/20 02:48:23;;;;;;;1.40;1.30;;;;;;;22.29;51.69;101403.81;5055436;28;20044;-58
2023/07/20 02:50:48;;;;;;;1.90;1.60;;;;;;;22.30;51.67;101410.97;5056972;28;20032;-58
2023/07/20 02:53:14;;;;;;;1.15;1.08;;;;;;;22.29;52.07;101406.53;5051944;28;20519;-59
2023/07/20 02:55:39;;;;;;;1.17;1.08;;;;;;;22.28;52.18;101411.13;5057796;28;20036;-58
2023/07/20 02:58:04;;;;;;;1.67;1.17;;;;;;;22.28;51.98;101413.81;5060823;28;20025;-59
2023/07/20 03:00:30;;;;;;;1.40;1.25;;;;;;;22.28;51.46;101415.69;5051178;28;20029;-58
2023/07/20 03:02:55;;;;;;;1.27;1.13;;;;;;;22.28;51.95;101424.69;5055761;28;20029;-59
2023/07/20 03:05:25;;;;;;;1.55;1.15;;;;;;;22.28;51.84;101434.69;5058997;28;20060;-58
2023/07/20 03:07:51;;;;;;;1.52;1.42;;;;;;;22.28;51.62;101429.25;5055714;28;20065;-58
2023/07/20 03:10:16;;;;;;;2.40;1.30;;;;;;;22.26;51.45;101426.72;5058837;28;20051;-58
2023/07/20 03:12:42;;;;;;;1.58;1.30;;;;;;;22.26;51.52;101424.00;5044028;28;20386;-58
2023/07/20 03:15:08;;;;;;;1.55;1.45;;;;;;;22.26;51.84;101429.41;5063534;28;20034;-59
2023/07/20 03:17:33;;;;;;;1.13;1.02;;;;;;;22.25;51.80;101433.97;5060660;28;20093;-59
2023/07/20 03:20:00;;;;;;;1.48;1.20;;;;;;;22.25;51.21;101430.41;5061325;28;20494;-59
2023/07/20 03:22:26;;;;;;;1.20;1.10;;;;;;;22.25;51.87;101436.69;5038487;28;20041;-59
2023/07/20 03:24:52;;;;;;;1.20;1.10;;;;;;;22.24;51.66;101440.38;5059680;28;20432;-58
2023/07/20 03:27:18;;;;;;;0.90;0.80;;;;;;;22.25;51.42;101443.97;5059184;28;20044;-59
2023/07/20 03:29:44;;;;;;;1.20;1.10;;;;;;;22.24;51.32;101439.56;5059576;28;20040;-58
2023/07/20 03:32:09;;;;;;;1.05;0.98;;;;;;;22.24;51.39;101445.81;5063586;28;20032;-59
2023/07/20 03:34:35;;;;;;;2.10;1.35;;;;;;;22.24;51.36;101445.81;5059052;28;20479;-59
2023/07/20 03:37:00;;;;;;;1.15;1.00;;;;;;;22.23;51.32;101441.38;5064521;28;20040;-59
2023/07/20 03:39:26;;;;;;;1.35;1.25;;;;;;;22.23;51.61;101441.38;5057102;28;20441;-58
2023/07/20 03:41:52;;;;;;;1.33;1.17;;;;;;;22.22;51.70;101450.56;5058901;28;20104;-59
2023/07/20 03:44:17;;;;;;;1.50;1.10;;;;;;;22.23;51.36;101452.25;5057910;28;20048;-59
2023/07/20 03:46:43;;;;;;;1.45;1.25;;;;;;;22.22;51.69;101441.56;5060245;28;20024;-59
2023/07/20 03:49:10;;;;;;;2.05;1.10;;;;;;;22.22;51.71;101441.56;5042844;28;20478;-58
2023/07/20 03:51:35;;;;;;;0.90;0.90;;;;;;;22.22;51.74;101444.28;5061092;28;20439;-58
2023/07/20 03:54:01;;;;;;;1.42;1.13;;;;;;;22.22;51.30;101453.25;5061454;28;20024;-59
2023/07/20 03:56:26;;;;;;;1.98;1.40;;;;;;;22.22;51.42;101452.41;5059800;28;20036;-58
2023/07/20 03:58:51;;;;;;;1.40;1.27;;;;;;;22.21;51.59;101459.69;5059845;28;20025;-59
2023/07/20 04:01:17;;;;;;;1.75;1.10;;;;;;;22.21;51.44;101459.69;5061236;28;20037;-58
2023/07/20 04:03:43;;;;;;;1.23;1.13;;;;;;;22.21;51.73;101462.41;5056774;28;20020;-58
2023/07/20 04:06:08;;;;;;;1.02;0.93;;;;;;;22.20;51.49;101471.56;5064501;28;20021;-58
2023/07/20 04:08:34;;;;;;;1.10;1.10;;;;;;;22.19;51.11;101459.00;5058547;28;20021;-58
2023/07/20 04:11:04;;;;;;;1.75;0.93;;;;;;;22.20;51.20;101466.13;5056112;28;20094;-58
2023/07/20 04:13:33;;;;;;;1.20;1.10;;;;;;;22.19;51.45;101461.72;5052563;28;20043;-58
2023/07/20 04:15:58;;;;;;;1.55;1.08;;;;;;;22.20;51.57;101463.44;5060661;28;20046;-59
2023/07/20 04:18:24;;;;;;;2.70;1.25;;;;;;;22.20;51.31;101462.56;5059493;28;20036;-59
2023/07/20 04:20:49;;;;;;;1.00;0.95;;;;;;;22.19;51.11;101469.84;5038963;28;20407;-58
2023/07/20 04:23:14;;;;;;;1.08;1.00;;;;;;;22.19;51.55;101466.28;5039369;28;20021;-59
2023/07/20 04:25:40;;;;;;;0.90;0.90;;;;;;;22.19;51.15;101463.59;5037726;28;20028;-58
2023/07/20 04:28:09;;;;;;;0.90;0.90;;;;;;;22.17;51.49;101465.59;5043900;28;20045;-58
2023/07/20 04:30:36;;;;;;;1.40;0.95;;;;;;;22.18;51.39;101468.16;5030509;28;20100;-58
2023/07/20 04:33:01;;;;;;;1.90;1.00;;;;;;;22.18;51.31;101462.75;5043169;28;20038;-58
2023/07/20 04:35:47;;;;;;;1.48;1.20;;;;;;;22.20;51.61;101462.56;5039446;28;20108;-58
2023/07/20 04:38:16;;;;;;;1.58;0.85;;;;;;;22.18;51.34;101470.00;5036447;28;20056;-59
2023/07/20 04:40:42;;;;;;;1.20;1.10;;;;;;;22.17;50.77;101462.88;5040982;28;20032;-59
2023/07/20 04:43:07;;;;;;;1.23;1.10;;;;;;;22.18;50.89;101470.00;5037269;28;20415;-58
2023/07/20 04:45:33;;;;;;;1.20;1.10;;;;;;;22.16;51.01;101464.75;5035641;28;20116;-58
2023/07/20 04:47:58;;;;;;;0.90;0.90;;;;;;;22.16;51.40;101470.19;5056390;28;20128;-58
2023/07/20 04:50:25;;;;;;;1.02;0.77;;;;;;;22.16;51.07;101464.75;5039630;28;20057;-58
2023/07/20 04:52:52;;;;;;;1.20;1.08;;;;;;;22.15;50.92;101468.47;5038215;28;20033;-58
2023/07/20 04:55:17;;;;;;;1.00;0.90;;;;;;;22.15;51.21;101471.19;5040317;28;20058;-58
2023/07/20 04:57:42;;;;;;;1.02;1.02;;;;;;;22.15;50.85;101468.47;5039951;28;20029;-59
2023/07/20 05:00:11;;;;;;;1.50;1.20;;;;;;;22.15;50.78;101465.75;5034644;28;20392;-59
2023/07/20 05:02:36;;;;;;;1.83;0.90;;;;;;;22.15;51.21;101468.47;5037808;28;20585;-58
2023/07/20 05:05:04;;;;;;;1.00;0.90;;;;;;;22.14;50.86;101466.78;5039773;28;20033;-59
2023/07/20 05:07:30;;;;;;;1.17;1.08;;;;;;;22.14;51.20;101466.78;5037610;28;20033;-59
2023/07/20 05:09:55;;;;;;;1.30;1.02;;;;;;;22.14;50.80;101463.19;5039104;28;20071;-58
2023/07/20 05:12:20;;;;;;;1.13;1.02;;;;;;;22.14;51.21;101461.34;5035404;28;20105;-59
2023/07/20 05:14:46;;;;;;;1.27;1.02;;;;;;;22.15;51.26;101464.91;5035300;28;20036;-59
2023/07/20 05:17:11;;;;;;;0.85;0.80;;;;;;;22.13;51.34;101459.66;5039418;28;20117;-59
2023/07/20 05:19:36;;;;;;;2.22;1.05;;;;;;;22.14;50.60;101455.94;5045253;28;20550;-58
2023/07/20 05:22:02;;;;;;;0.80;0.80;;;;;;;22.14;51.28;101460.47;5054117;28;20146;-59
2023/07/20 05:24:27;;;;;;;1.08;0.80;;;;;;;22.13;50.87;101454.22;5057520;28;20023;-59
2023/07/20 05:26:53;;;;;;;1.00;1.00;;;;;;;22.13;50.91;101456.94;5057195;28;20031;-59
2023/07/20 05:29:19;;;;;;;1.30;1.10;;;;;;;22.13;51.13;101454.22;5059439;28;20051;-58
2023/07/20 05:31:44;;;;;;;0.98;0.90;;;;;;;22.12;50.71;101463.34;5058652;28;20074;-58
2023/07/20 05:34:10;;;;;;;0.90;0.90;;;;;;;22.12;50.50;101479.63;5058167;28;20024;-58
2023/07/20 05:36:36;;;;;;;1.10;1.00;;;;;;;22.13;50.58;101480.50;5058153;28;20040;-58
2023/07/20 05:39:01;;;;;;;1.02;0.93;;;;;;;22.13;50.73;101480.50;5054679;28;20479;-59
2023/07/20 05:41:27;;;;;;;1.02;0.93;;;;;;;22.12;50.92;101485.03;5056305;28;20033;-58
2023/07/20 05:43:52;;;;;;;1.17;0.90;;;;;;;22.12;50.69;101482.34;5056689;28;20059;-59
2023/07/20 05:46:18;;;;;;;1.02;0.80;;;;;;;22.12;50.63;101489.63;5055669;28;20592;-59
2023/07/20 05:48:43;;;;;;;1.00;1.00;;;;;;;22.12;50.93;101487.75;5056388;28;20033;-58
2023/07/20 05:51:08;;;;;;;1.13;1.00;;;;;;;22.12;50.58;101495.06;5056957;28;20059;-59
2023/07/20 05:53:35;;;;;;;1.30;1.00;;;;;;;22.11;51.05;101498.78;5050513;28;20486;-59
2023/07/20 05:56:00;;;;;;;1.15;1.05;;;;;;;22.10;50.99;101492.50;5058080;28;20537;-59
2023/07/20 05:58:26;;;;;;;1.52;0.98;;;;;;;22.10;50.64;101492.50;5055487;28;20045;-59
2023/07/20 06:00:51;;;;;;;1.00;1.00;;;;;;;22.10;50.57;101492.50;5055610;28;20031;-58
2023/07/20 06:03:17;;;;;;;1.20;1.10;;;;;;;22.10;50.92;101500.63;5057467;28;20403;-58
2023/07/20 06:05:43;;;;;;;1.30;0.93;;;;;;;22.10;50.57;101492.50;5059699;28;20031;-58
2023/07/20 06:08:08;;;;;;;0.90;0.90;;;;;;;22.10;50.91;101497.91;5057084;28;20104;-58
2023/07/20 06:10:34;;;;;;;0.70;0.70;;;;;;;22.09;50.97;101492.69;5056781;28;20029;-59
2023/07/20 06:12:59;;;;;;;0.77;0.77;;;;;;;22.09;50.40;101498.94;5058717;28;20064;-58
2023/07/20 06:15:31;;;;;;;0.70;0.70;;;;;;;22.07;50.44;101498.25;5053292;28;20107;-58
2023/07/20 06:17:57;;;;;;;0.88;0.80;;;;;;;22.08;50.46;101505.34;5054309;28;20423;-58
2023/07/20 06:20:24;;;;;;;0.80;0.80;;;;;;;22.08;50.97;101509.94;5056432;28;20449;-58
2023/07/20 06:22:49;;;;;;;0.90;0.90;;;;;;;22.08;50.90;101509.94;5057924;28;20035;-58
2023/07/20 06:25:15;;;;;;;0.80;0.80;;;;;;;22.09;50.89;101517.94;5051325;28;20032;-58
2023/07/20 06:27:40;;;;;;;1.08;0.93;;;;;;;22.08;50.68;101518.91;5057232;28;20096;-58
2023/07/20 06:30:06;;;;;;;0.68;0.68;;;;;;;22.07;50.84;101511.81;5053031;28;20469;-59
2023/07/20 06:32:32;;;;;;;0.80;0.80;;;;;;;22.08;50.93;101516.22;5054842;28;20068;-58
2023/07/20 06:34:57;;;;;;;1.10;1.00;;;;;;;22.07;50.54;101511.81;5048893;28;20110;-58
2023/07/20 06:37:23;;;;;;;0.70;0.70;;;;;;;22.07;50.47;101509.09;5054500;28;20033;-58
2023/07/20 06:39:49;;;;;;;0.73;0.70;;;;;;;22.07;50.90;101509.09;5062760;28;20028;-58
2023/07/20 06:42:14;;;;;;;0.60;0.60;;;;;;;22.07;50.42;101500.97;5056459;28;20037;-59
2023/07/20 06:44:39;;;;;;;0.70;0.70;;;;;;;22.06;50.82;101505.50;5065457;28;20044;-58
2023/07/20 06:47:05;;;;;;;1.15;0.85;;;;;;;22.07;50.87;101509.09;5058949;28;20021;-58
2023/07/20 06:49:30;;;;;;;0.70;0.70;;;;;;;22.07;50.69;101509.09;5065813;28;20052;-59
2023/07/20 06:51:56;;;;;;;1.10;0.82;;;;;;;22.06;50.63;101501.97;5059884;28;20025;-58
2023/07/20 06:54:22;;;;;;;1.60;1.00;;;;;;;22.06;50.66;101507.38;5061131;28;20020;-59
2023/07/20 06:56:47;;;;;;;0.75;0.70;;;;;;;22.06;50.33;101508.22;5057407;28;20036;-58
2023/07/20 06:59:13;;;;;;;0.55;0.50;;;;;;;22.06;50.65;101513.66;5062526;28;20684;-58
2023/07/20 07:01:39;;;;;;;1.05;0.75;;;;;;;22.05;50.79;101509.25;5060838;28;20029;-58
2023/07/20 07:04:05;;;;;;;0.68;0.68;;;;;;;22.06;50.51;101507.38;5061147;28;20562;-58
2023/07/20 07:06:31;;;;;;;1.73;0.90;;;;;;;22.04;50.73;101512.97;5058760;28;20112;-58
2023/07/20 07:08:56;;;;;;;0.45;0.45;;;;;;;22.06;50.89;101518.22;5058988;28;20040;-58
2023/07/20 07:11:23;;;;;;;1.25;0.60;;;;;;;22.06;50.67;101510.09;5055707;28;20046;-57
2023/07/20 07:13:50;;;;;;;0.73;0.70;;;;;;;22.05;50.71;101516.53;5062892;28;20547;-57
2023/07/20 07:16:18;;;;;;;0.80;0.80;;;;;;;22.04;50.26;101517.53;5062678;28;20036;-59
2023/07/20 07:18:44;;;;;;;1.08;0.68;;;;;;;22.04;50.56;101522.97;5059448;28;20032;-58
2023/07/20 07:21:10;;;;;;;1.33;0.75;;;;;;;22.04;50.49;101521.09;5056728;28;20029;-58
2023/07/20 07:23:35;;;;;;;0.73;0.73;;;;;;;22.05;50.85;101524.69;5059915;28;20471;-58
2023/07/20 07:26:00;;;;;;;0.90;0.77;;;;;;;22.05;50.39;101519.25;5058606;28;20060;-58
2023/07/20 07:28:28;;;;;;;0.65;0.65;;;;;;;22.04;50.50;101520.25;5059323;28;20037;-58
2023/07/20 07:30:56;;;;;;;0.60;0.60;;;;;;;22.04;50.35;101525.66;5056459;28;20478;-58
2023/07/20 07:33:22;;;;;;;0.68;0.68;;;;;;;22.04;50.80;101521.09;5060595;28;20032;-59
2023/07/20 07:35:47;;;;;;;1.05;0.70;;;;;;;22.04;50.49;101521.09;5060659;28;20518;-58
2023/07/20 07:38:12;;;;;;;0.80;0.80;;;;;;;22.05;50.79;101519.25;5058649;28;20083;-59
2023/07/20 07:40:38;;;;;;;0.40;0.40;;;;;;;22.05;50.47;101519.25;5039997;28;20483;-58
2023/07/20 07:43:03;;;;;;;1.77;0.70;;;;;;;22.04;50.64;101520.25;5057375;28;20467;-58
2023/07/20 07:45:28;;;;;;;1.40;0.52;;;;;;;22.04;50.44;101525.66;5060905;28;20041;-58
2023/07/20 07:47:54;;;;;;;1.80;0.70;;;;;;;22.04;50.87;101526.50;5064005;28;20036;-58
2023/07/20 07:50:19;;;;;;;1.02;0.60;;;;;;;22.03;50.67;101518.56;5059212;28;20037;-58
2023/07/20 07:52:45;;;;;;;1.17;0.70;;;;;;;22.04;50.58;101536.53;5059300;28;20037;-58
2023/07/20 07:55:10;;;;;;;0.57;0.57;;;;;;;22.04;50.42;101536.53;5059490;28;20025;-58
2023/07/20 07:57:35;;;;;;;1.55;0.70;;;;;;;22.04;50.74;101536.53;5057868;28;20127;-58
2023/07/20 08:00:01;;;;;;;0.55;0.52;;;;;;;22.03;50.74;101532.97;5038086;28;20025;-58
2023/07/20 08:02:26;;;;;;;0.65;0.60;;;;;;;22.04;50.98;101539.22;5060277;28;20500;-58
2023/07/20 08:04:52;;;;;;;0.60;0.60;;;;;;;22.03;50.89;101527.53;5059264;28;20099;-58
2023/07/20 08:07:17;;;;;;;0.60;0.60;;;;;;;22.04;50.54;101540.06;5042452;28;20094;-57
2023/07/20 08:09:43;;;;;;;0.75;0.75;;;;;;;22.03;50.52;101541.09;5060344;28;20536;-57
2023/07/20 08:12:08;;;;;;;0.73;0.60;;;;;;;22.03;50.85;101534.84;5057481;28;20029;-58
2023/07/20 08:14:34;;;;;;;0.65;0.65;;;;;;;22.05;50.48;101554.50;5061972;28;20033;-58
2023/07/20 08:16:59;;;;;;;1.00;0.70;;;;;;;22.05;50.52;101549.94;5059300;28;20086;-58
2023/07/20 08:19:24;;;;;;;0.60;0.60;;;;;;;22.05;50.92;101554.50;5059985;28;20080;-57
2023/07/20 08:21:50;;;;;;;0.60;0.60;;;;;;;22.04;51.03;101548.22;5060061;28;20021;-58
2023/07/20 08:24:15;;;;;;;0.93;0.63;;;;;;;22.04;51.09;101548.22;5059414;28;20041;-58
2023/07/20 08:26:41;;;;;;;1.52;0.60;;;;;;;22.05;50.58;101558.06;5057452;28;20027;-58
2023/07/20 08:29:06;;;;;;;0.55;0.55;;;;;;;22.06;50.70;101561.63;5057119;28;20029;-58
2023/07/20 08:31:31;;;;;;;0.57;0.57;;;;;;;22.05;50.56;101549.09;5059143;28;20536;-58
2023/07/20 08:33:57;;;;;;;0.65;0.50;;;;;;;22.04;50.56;101550.06;5055006;28;20039;-57
2023/07/20 08:36:23;;;;;;;0.50;0.50;;;;;;;22.05;50.59;101549.09;5061005;28;20032;-58
2023/07/20 08:38:48;;;;;;;3.05;0.82;;;;;;;22.05;50.84;101546.38;5060749;28;20033;-58
2023/07/20 08:41:14;;;;;;;0.50;0.50;;;;;;;22.05;51.11;101543.66;5058856;28;20032;-58
2023/07/20 08:43:43;;;;;;;0.52;0.52;;;;;;;22.05;51.22;101549.94;5061970;28;20037;-59
2023/07/20 08:46:11;;;;;;;1.70;0.52;;;;;;;22.05;50.58;101543.66;5062577;28;20020;-58
2023/07/20 08:48:36;;;;;;;0.65;0.57;;;;;;;22.04;51.05;101542.78;5057031;28;20463;-58
2023/07/20 08:51:04;;;;;;;0.73;0.60;;;;;;;22.05;50.60;101544.50;5059475;28;20030;-58
2023/07/20 08:53:31;;;;;;;0.52;0.50;;;;;;;22.05;50.43;101541.78;5057943;28;20482;-59
2023/07/20 08:55:59;;;;;;;0.50;0.50;;;;;;;22.04;50.83;101537.38;5057060;28;20028;-59
2023/07/20 08:58:26;;;;;;;0.40;0.40;;;;;;;22.04;50.97;101544.66;5053960;28;20048;-58
2023/07/20 09:00:53;;;;;;;0.70;0.70;;;;;;;22.06;51.03;101542.63;5059834;28;20075;-58
2023/07/20 09:03:19;;;;;;;0.60;0.50;;;;;;;22.05;51.00;101540.94;5050210;28;20088;-59
2023/07/20 09:05:45;;;;;;;0.80;0.65;;;;;;;22.05;50.67;101536.38;5058473;28;20026;-58
2023/07/20 09:08:10;;;;;;;1.38;0.60;;;;;;;22.06;51.19;101537.22;5061649;28;20074;-58
2023/07/20 09:10:36;;;;;;;0.50;0.50;;;;;;;22.05;50.56;101535.53;5058176;28;20059;-58
2023/07/20 09:13:01;;;;;;;0.50;0.50;;;;;;;22.05;50.86;101539.09;5057895;28;20033;-58
2023/07/20 09:15:29;;;;;;;0.57;0.55;;;;;;;22.06;50.91;101534.50;5058573;28;20032;-58
2023/07/20 09:17:55;;;;;;;1.13;0.60;;;;;;;22.07;51.12;101536.22;5053348;28;20074;-58
2023/07/20 09:20:21;;;;;;;1.38;0.68;;;;;;;22.06;51.32;101535.34;5052832;28;20080;-58
2023/07/20 09:22:46;;;;;;;0.65;0.63;;;;;;;22.07;50.71;101541.66;5055792;28;20087;-58
2023/07/20 09:25:14;;;;;;;0.60;0.57;;;;;;;22.07;51.18;101536.22;5056746;28;20033;-59
2023/07/20 09:27:41;;;;;;;0.60;0.50;;;;;;;22.07;50.78;101533.50;5057953;28;20043;-58
2023/07/20 09:30:09;;;;;;;0.85;0.60;;;;;;;22.08;50.62;101532.47;5042463;28;20374;-58
2023/07/20 09:32:43;;;;;;;0.50;0.50;;;;;;;22.09;51.17;101534.19;5048528;28;20376;-58
2023/07/20 09:35:16;;;;;;;0.40;0.40;;;;;;;22.08;50.69;101532.47;5053555;28;20032;-58
2023/07/20 09:37:55;;;;;;;0.75;0.50;;;;;;;22.09;50.86;101528.78;5054980;28;20045;-58
2023/07/20 09:40:21;;;;;;;0.50;0.50;;;;;;;22.08;51.15;101521.63;5056674;28;20490;-58
2023/07/20 09:42:47;;;;;;;0.50;0.50;;;;;;;22.08;51.19;101518.91;5058145;28;20036;-58
2023/07/20 09:45:12;;;;;;;0.43;0.43;;;;;;;22.09;51.17;101519.78;5058191;28;20073;-58
2023/07/20 09:47:38;;;;;;;0.40;0.40;;;;;;;22.09;51.19;101517.94;5056637;28;20528;-58
2023/07/20 09:50:07;;;;;;;0.60;0.60;;;;;;;22.09;50.78;101517.94;5058128;28;20467;-58
2023/07/20 09:52:33;;;;;;;0.65;0.40;;;;;;;22.09;50.81;101517.09;5053081;28;20040;-58
2023/07/20 09:55:00;;;;;;;0.50;0.50;;;;;;;22.09;50.74;101520.63;5057717;28;20029;-58
2023/07/20 09:57:26;;;;;;;0.45;0.40;;;;;;;22.09;50.76;101523.34;5041248;28;20402;-58
2023/07/20 09:59:51;;;;;;;0.40;0.40;;;;;;;22.10;50.64;101514.19;5054609;28;20029;-58
2023/07/20 10:02:21;;;;;;;2.08;0.45;;;;;;;22.10;51.16;101511.47;5057638;28;20037;-58
2023/07/20 10:04:49;;;;;;;0.75;0.50;;;;;;;22.11;50.68;101518.63;5058544;28;20409;-58
2023/07/20 10:07:16;;;;;;;0.40;0.40;;;;;;;22.10;50.81;101525.03;5058452;28;20386;-58
2023/07/20 10:09:44;;;;;;;0.50;0.50;;;;;;;22.10;51.33;101514.19;5059265;28;20466;-58
2023/07/20 10:12:09;;;;;;;1.30;0.40;;;;;;;22.12;51.17;101516.75;5056798;28;20829;-58
2023/07/20 10:14:40;;;;;;;0.55;0.40;;;;;;;22.11;51.22;101513.19;5056458;28;20107;-58
2023/07/20 10:17:07;;;;;;;;;;;;;;;22.19;50.72;101515.97;5058572;28;20379;-59
2023/07/20 10:19:41;;;;;;;0.40;0.40;;;;;;;22.13;51.10;101511.16;5057914;28;19953;-58
2023/07/20 10:22:13;;;;;;;0.88;0.40;;;;;;;22.13;51.13;101504.91;5054002;28;20029;-58
2023/07/20 10:24:41;;;;;;;0.43;0.40;;;;;;;22.11;50.92;101499.63;5055449;28;20025;-58
2023/07/20 10:27:07;;;;;;;0.40;0.40;;;;;;;22.14;50.88;101506.59;5055052;28;20016;-59
2023/07/20 10:29:32;;;;;;;0.68;0.50;;;;;;;22.12;50.98;101495.91;5057001;28;20471;-58
2023/07/20 10:31:58;;;;;;;0.38;0.38;;;;;;;22.12;51.31;101498.59;5058304;28;20033;-59
2023/07/20 10:34:24;;;;;;;0.60;0.60;;;;;;;22.12;50.84;101504.03;5054255;28;20032;-58
2023/07/20 10:36:54;;;;;;;0.47;0.38;;;;;;;22.13;51.13;101496.78;5058096;28;20040;-58
2023/07/20 10:39:27;;;;;;;0.30;0.30;;;;;;;22.14;50.98;101498.44;5056663;28;20037;-58
2023/07/20 10:42:09;;;;;;;0.40;0.40;;;;;;;22.13;50.91;101486.75;5053000;28;20426;-59
2023/07/20 10:44:39;;;;;;;0.57;0.57;;;;;;;22.14;50.87;101490.31;5053120;28;20036;-58
2023/07/20 10:47:12;;;;;;;1.48;0.50;;;;;;;22.14;50.77;101493.91;5051392;28;20025;-58
2023/07/20 10:50:13;;;;;;;1.95;0.60;;;;;;;22.17;50.79;101488.16;5054744;28;20040;-59
2023/07/20 10:52:41;;;;;;;0.40;0.40;;;;;;;22.14;50.81;101488.47;4973092;28;20058;-58
2023/07/20 10:55:17;;;;;;;1.45;0.40;;;;;;;22.15;50.86;101489.31;5038902;28;20055;-58
2023/07/20 10:57:42;;;;;;;0.38;0.38;;;;;;;22.14;50.92;101483.06;5058697;28;20028;-59
2023/07/20 11:00:13;;;;;;;0.55;0.40;;;;;;;22.15;50.98;101483.91;5056687;28;20062;-58
2023/07/20 11:02:42;;;;;;;;;;;;;;;22.23;50.71;101486.66;5055684;28;20502;-59
2023/07/20 11:05:40;;;;;;;0.40;0.40;;;;;;;22.18;51.30;101486.28;5052294;28;19972;-58
2023/07/20 11:08:38;;;;;;;0.38;0.38;;;;;;;22.18;50.90;101489.88;5055706;28;20025;-58
2023/07/20 11:11:27;;;;;;;0.30;0.30;;;;;;;22.17;51.27;101482.72;5055597;28;20463;-58
2023/07/20 11:14:01;;;;;;;0.50;0.50;;;;;;;22.17;51.31;101487.31;5060472;28;20079;-58
2023/07/20 11:16:39;;;;;;;0.75;0.50;;;;;;;22.16;51.45;101483.75;5058156;28;20505;-58
2023/07/20 11:19:05;;;;;;;1.48;0.50;;;;;;;22.16;51.45;101475.63;5055586;28;20075;-59
2023/07/20 11:21:40;;;;;;;0.60;0.50;;;;;;;22.15;51.41;101482.03;5057329;28;20035;-59
2023/07/20 11:24:07;;;;;;;0.50;0.40;;;;;;;22.15;51.04;101476.59;5060473;28;20032;-58
2023/07/20 11:26:48;;;;;;;0.40;0.40;;;;;;;22.17;51.47;101477.28;5058042;28;20055;-59